sensor_id;sensor_type;location;lat;lon;timestamp;pressure;altitude;pressure_sealevel;temperature;humidity
1371;BME280;14306;49.942;11.570;2023-05-14T00:00:46;97655.50;;;11.73;76.64
1371;BME280;14306;49.942;11.570;2023-05-14T00:03:15;97649.88;;;11.56;78.16
1371;BME280;14306;49.942;11.570;2023-05-14T00:05:44;97652.97;;;11.76;77.49
1371;BME280;14306;49.942;11.570;2023-05-14T00:08:15;97648.47;;;11.72;77.20
1371;BME280;14306;49.942;11.570;2023-05-14T00:10:44;97641.09;;;11.86;76.94
1371;BME280;14306;49.942;11.570;2023-05-14T00:13:13;97639.09;;;11.78;76.94
1371;BME280;14306;49.942;11.570;2023-05-14T00:15:42;97629.69;;;11.48;77.47
1371;BME280;14306;49.942;11.570;2023-05-14T00:18:11;97625.56;;;11.51;77.99
1371;BME280;14306;49.942;11.570;2023-05-14T00:20:40;97625.72;;;11.32;78.47
1371;BME280;14306;49.942;11.570;2023-05-14T00:23:10;97636.94;;;11.26;77.08
1371;BME280;14306;49.942;11.570;2023-05-14T00:25:41;97622.78;;;11.42;77.71
1371;BME280;14306;49.942;11.570;2023-05-14T00:28:10;97627.00;;;11.48;78.02
1371;BME280;14306;49.942;11.570;2023-05-14T00:30:39;97628.44;;;11.32;77.68
1371;BME280;14306;49.942;11.570;2023-05-14T00:33:08;97613.06;;;11.28;77.91
1371;BME280;14306;49.942;11.570;2023-05-14T00:35:41;97627.22;;;11.11;78.09
1371;BME280;14306;49.942;11.570;2023-05-14T00:38:09;97626.09;;;11.12;78.78
1371;BME280;14306;49.942;11.570;2023-05-14T00:40:45;97618.78;;;10.99;78.60
1371;BME280;14306;49.942;11.570;2023-05-14T00:43:18;97622.91;;;10.97;79.46
1371;BME280;14306;49.942;11.570;2023-05-14T00:45:49;97624.81;;;11.10;79.63
1371;BME280;14306;49.942;11.570;2023-05-14T00:48:19;97621.69;;;11.03;78.94
1371;BME280;14306;49.942;11.570;2023-05-14T00:50:48;97621.69;;;11.16;78.53
1371;BME280;14306;49.942;11.570;2023-05-14T00:53:18;97621.31;;;11.23;78.58
1371;BME280;14306;49.942;11.570;2023-05-14T00:55:49;97610.78;;;10.94;78.93
1371;BME280;14306;49.942;11.570;2023-05-14T00:58:18;97599.53;;;10.87;79.12
1371;BME280;14306;49.942;11.570;2023-05-14T01:00:50;97608.13;;;10.89;79.36
1371;BME280;14306;49.942;11.570;2023-05-14T01:03:20;97605.66;;;10.93;78.83
1371;BME280;14306;49.942;11.570;2023-05-14T01:05:55;97609.84;;;10.99;78.47
1371;BME280;14306;49.942;11.570;2023-05-14T01:08:33;97621.16;;;10.60;79.51
1371;BME280;14306;49.942;11.570;2023-05-14T01:11:15;97618.91;;;10.81;79.06
1371;BME280;14306;49.942;11.570;2023-05-14T01:13:52;97609.94;;;10.67;80.01
1371;BME280;14306;49.942;11.570;2023-05-14T01:16:26;97610.13;;;10.70;79.81
1371;BME280;14306;49.942;11.570;2023-05-14T01:18:58;97616.56;;;10.74;79.41
1371;BME280;14306;49.942;11.570;2023-05-14T01:21:42;97610.13;;;10.84;79.11
1371;BME280;14306;49.942;11.570;2023-05-14T01:24:11;97615.25;;;10.72;79.76
1371;BME280;14306;49.942;11.570;2023-05-14T01:26:41;97615.19;;;10.90;79.35
1371;BME280;14306;49.942;11.570;2023-05-14T01:29:17;97614.84;;;10.78;79.55
1371;BME280;14306;49.942;11.570;2023-05-14T01:31:49;97607.91;;;10.59;80.08
1371;BME280;14306;49.942;11.570;2023-05-14T01:34:23;97605.81;;;10.56;80.78
1371;BME280;14306;49.942;11.570;2023-05-14T01:36:56;97613.66;;;10.71;80.00
1371;BME280;14306;49.942;11.570;2023-05-14T01:39:26;97619.06;;;10.71;79.45
1371;BME280;14306;49.942;11.570;2023-05-14T01:41:58;97602.88;;;10.39;80.25
1371;BME280;14306;49.942;11.570;2023-05-14T01:44:30;97634.47;;;10.43;79.95
1371;BME280;14306;49.942;11.570;2023-05-14T01:46:59;97616.63;;;10.42;79.45
1371;BME280;14306;49.942;11.570;2023-05-14T01:49:32;97628.72;;;10.31;80.02
1371;BME280;14306;49.942;11.570;2023-05-14T01:52:03;97612.47;;;10.31;79.37
1371;BME280;14306;49.942;11.570;2023-05-14T01:54:32;97608.19;;;10.44;79.31
1371;BME280;14306;49.942;11.570;2023-05-14T01:57:01;97611.78;;;10.39;79.39
1371;BME280;14306;49.942;11.570;2023-05-14T01:59:30;97624.16;;;10.45;79.62
1371;BME280;14306;49.942;11.570;2023-05-14T02:01:59;97614.00;;;10.37;78.94
1371;BME280;14306;49.942;11.570;2023-05-14T02:04:27;97609.19;;;10.34;79.33
1371;BME280;14306;49.942;11.570;2023-05-14T02:06:56;97607.94;;;10.27;79.42
1371;BME280;14306;49.942;11.570;2023-05-14T02:09:27;97615.22;;;10.13;81.03
1371;BME280;14306;49.942;11.570;2023-05-14T02:11:56;97616.97;;;10.22;80.66
1371;BME280;14306;49.942;11.570;2023-05-14T02:14:25;97620.69;;;10.26;80.02
1371;BME280;14306;49.942;11.570;2023-05-14T02:16:53;97617.59;;;10.33;79.95
1371;BME280;14306;49.942;11.570;2023-05-14T02:19:23;97616.66;;;10.24;80.22
1371;BME280;14306;49.942;11.570;2023-05-14T02:21:52;97620.66;;;10.13;80.34
1371;BME280;14306;49.942;11.570;2023-05-14T02:24:21;97618.44;;;10.15;80.26
1371;BME280;14306;49.942;11.570;2023-05-14T02:26:53;97602.66;;;9.85;80.95
1371;BME280;14306;49.942;11.570;2023-05-14T02:29:23;97608.44;;;9.97;80.79
1371;BME280;14306;49.942;11.570;2023-05-14T02:31:53;97614.03;;;10.00;79.87
1371;BME280;14306;49.942;11.570;2023-05-14T02:34:22;97613.41;;;9.90;80.97
1371;BME280;14306;49.942;11.570;2023-05-14T02:36:51;97611.03;;;10.02;79.93
1371;BME280;14306;49.942;11.570;2023-05-14T02:39:19;97619.09;;;10.07;80.21
1371;BME280;14306;49.942;11.570;2023-05-14T02:41:48;97608.44;;;9.97;79.65
1371;BME280;14306;49.942;11.570;2023-05-14T02:44:19;97616.09;;;9.71;79.96
1371;BME280;14306;49.942;11.570;2023-05-14T02:46:48;97615.16;;;9.81;80.47
1371;BME280;14306;49.942;11.570;2023-05-14T02:49:17;97600.13;;;9.75;79.88
1371;BME280;14306;49.942;11.570;2023-05-14T02:51:46;97612.91;;;9.69;80.35
1371;BME280;14306;49.942;11.570;2023-05-14T02:54:15;97617.00;;;9.67;79.63
1371;BME280;14306;49.942;11.570;2023-05-14T02:56:44;97606.84;;;9.59;81.12
1371;BME280;14306;49.942;11.570;2023-05-14T02:59:13;97608.88;;;9.67;81.05
1371;BME280;14306;49.942;11.570;2023-05-14T03:01:44;97612.16;;;9.82;80.02
1371;BME280;14306;49.942;11.570;2023-05-14T03:04:14;97609.75;;;9.81;80.58
1371;BME280;14306;49.942;11.570;2023-05-14T03:06:43;97610.56;;;9.81;80.75
1371;BME280;14306;49.942;11.570;2023-05-14T03:09:11;97602.09;;;9.69;80.48
1371;BME280;14306;49.942;11.570;2023-05-14T03:11:40;97611.66;;;9.80;81.68
1371;BME280;14306;49.942;11.570;2023-05-14T03:14:09;97620.84;;;9.98;81.20
1371;BME280;14306;49.942;11.570;2023-05-14T03:16:38;97612.50;;;9.94;81.44
1371;BME280;14306;49.942;11.570;2023-05-14T03:19:10;97618.22;;;9.74;80.61
1371;BME280;14306;49.942;11.570;2023-05-14T03:21:39;97609.88;;;9.89;80.94
1371;BME280;14306;49.942;11.570;2023-05-14T03:24:09;97616.41;;;9.88;80.29
1371;BME280;14306;49.942;11.570;2023-05-14T03:26:38;97606.00;;;10.14;79.04
1371;BME280;14306;49.942;11.570;2023-05-14T03:29:07;97615.44;;;9.79;80.08
1371;BME280;14306;49.942;11.570;2023-05-14T03:31:37;97614.81;;;9.87;80.21
1371;BME280;14306;49.942;11.570;2023-05-14T03:34:06;97602.59;;;9.90;80.78
1371;BME280;14306;49.942;11.570;2023-05-14T03:36:36;97615.66;;;10.20;79.86
1371;BME280;14306;49.942;11.570;2023-05-14T03:39:06;97624.00;;;10.05;80.27
1371;BME280;14306;49.942;11.570;2023-05-14T03:41:36;97631.28;;;10.04;79.82
1371;BME280;14306;49.942;11.570;2023-05-14T03:44:05;97610.69;;;10.08;80.23
1371;BME280;14306;49.942;11.570;2023-05-14T03:46:34;97609.00;;;10.12;80.10
1371;BME280;14306;49.942;11.570;2023-05-14T03:49:05;97607.91;;;9.95;79.91
1371;BME280;14306;49.942;11.570;2023-05-14T03:51:38;97607.84;;;10.18;80.40
1371;BME280;14306;49.942;11.570;2023-05-14T03:54:07;97594.03;;;9.83;80.29
1371;BME280;14306;49.942;11.570;2023-05-14T03:56:36;97606.34;;;10.26;79.98
1371;BME280;14306;49.942;11.570;2023-05-14T03:59:05;97618.22;;;10.11;80.36
1371;BME280;14306;49.942;11.570;2023-05-14T04:01:34;97610.28;;;10.33;80.38
1371;BME280;14306;49.942;11.570;2023-05-14T04:04:05;97607.56;;;10.33;79.82
1371;BME280;14306;49.942;11.570;2023-05-14T04:06:34;97610.44;;;10.69;79.99
1371;BME280;14306;49.942;11.570;2023-05-14T04:09:05;97629.72;;;11.84;82.04
1371;BME280;14306;49.942;11.570;2023-05-14T04:11:34;97602.97;;;12.35;79.73
1371;BME280;14306;49.942;11.570;2023-05-14T04:14:04;97621.91;;;13.66;80.09
1371;BME280;14306;49.942;11.570;2023-05-14T04:16:33;97618.25;;;14.04;74.19
1371;BME280;14306;49.942;11.570;2023-05-14T04:19:02;97614.72;;;15.01;76.10
1371;BME280;14306;49.942;11.570;2023-05-14T04:21:33;97615.66;;;15.42;72.38
1371;BME280;14306;49.942;11.570;2023-05-14T04:24:02;97616.59;;;15.76;70.98
1371;BME280;14306;49.942;11.570;2023-05-14T04:26:36;97612.16;;;15.42;68.74
1371;BME280;14306;49.942;11.570;2023-05-14T04:29:04;97615.25;;;14.94;68.85
1371;BME280;14306;49.942;11.570;2023-05-14T04:31:35;97605.50;;;14.76;68.24
1371;BME280;14306;49.942;11.570;2023-05-14T04:34:04;97608.06;;;14.73;68.21
1371;BME280;14306;49.942;11.570;2023-05-14T04:36:33;97609.72;;;14.57;66.84
1371;BME280;14306;49.942;11.570;2023-05-14T04:39:04;97608.44;;;14.63;66.77
1371;BME280;14306;49.942;11.570;2023-05-14T04:41:34;97597.88;;;14.19;66.28
1371;BME280;14306;49.942;11.570;2023-05-14T04:44:04;97603.53;;;13.97;67.04
1371;BME280;14306;49.942;11.570;2023-05-14T04:46:33;97602.88;;;13.91;67.73
1371;BME280;14306;49.942;11.570;2023-05-14T04:49:02;97614.22;;;13.85;67.36
1371;BME280;14306;49.942;11.570;2023-05-14T04:51:31;97606.88;;;14.11;66.93
1371;BME280;14306;49.942;11.570;2023-05-14T04:54:00;97602.84;;;13.49;68.47
1371;BME280;14306;49.942;11.570;2023-05-14T04:56:29;97609.59;;;13.94;67.79
1371;BME280;14306;49.942;11.570;2023-05-14T04:59:01;97610.06;;;13.96;67.14
1371;BME280;14306;49.942;11.570;2023-05-14T05:01:31;97602.22;;;14.03;67.12
1371;BME280;14306;49.942;11.570;2023-05-14T05:04:00;97608.16;;;13.88;67.88
